createdAt,value
2023-09-06T00:03:51.341Z,15
2023-09-06T00:08:51.357Z,18
2023-09-06T00:13:51.344Z,17
2023-09-06T00:18:51.360Z,19
2023-09-06T00:23:51.362Z,17
2023-09-06T00:28:51.349Z,17
2023-09-06T00:33:51.365Z,18
2023-09-06T00:38:51.352Z,16
2023-09-06T00:43:51.368Z,16
2023-09-06T00:48:51.356Z,17
2023-09-06T00:53:51.371Z,13
2023-09-06T00:58:51.373Z,16
2023-09-06T01:03:51.361Z,17
2023-09-06T01:08:51.377Z,17
2023-09-06T01:13:51.364Z,17
2023-09-06T01:18:51.379Z,17
2023-09-06T01:23:51.381Z,16
2023-09-06T01:28:51.383Z,18
2023-09-06T01:33:51.385Z,21
2023-09-06T01:38:51.372Z,14
2023-09-06T01:43:51.387Z,17
2023-09-06T01:48:51.375Z,19
2023-09-06T01:53:51.391Z,16
2023-09-06T01:58:51.392Z,17
2023-09-06T02:03:51.379Z,16
2023-09-06T02:08:51.396Z,16
2023-09-06T02:13:51.383Z,13
2023-09-06T02:18:51.398Z,15
2023-09-06T02:23:51.400Z,13
2023-09-06T02:28:51.401Z,19
2023-09-06T02:33:51.404Z,18
2023-09-06T02:38:51.390Z,14
2023-09-06T02:43:51.406Z,19
2023-09-06T02:48:51.393Z,16
2023-09-06T02:53:51.457Z,16
2023-09-06T02:58:51.410Z,16
2023-09-06T03:03:51.412Z,17
2023-09-06T03:08:51.414Z,20
2023-09-06T03:13:51.401Z,21
2023-09-06T03:18:51.417Z,18
2023-09-06T03:23:51.404Z,19
2023-09-06T03:28:51.420Z,21
2023-09-06T03:33:51.421Z,17
2023-09-06T03:38:51.408Z,20
2023-09-06T03:43:51.425Z,20
2023-09-06T03:48:51.411Z,20
2023-09-06T03:53:51.427Z,19
2023-09-06T03:58:51.428Z,19
2023-09-06T04:03:51.430Z,15
2023-09-06T04:08:51.432Z,19
2023-09-06T04:13:51.419Z,18
2023-09-06T04:18:51.434Z,16
2023-09-06T04:23:51.422Z,18
2023-09-06T04:28:51.437Z,13
2023-09-06T04:33:51.439Z,21
2023-09-06T04:38:51.426Z,16
2023-09-06T04:43:51.442Z,19
2023-09-06T04:48:51.429Z,18
2023-09-06T04:53:51.444Z,19
2023-09-06T04:58:51.446Z,23
2023-09-06T05:03:51.447Z,20
2023-09-06T05:08:51.456Z,22
2023-09-06T05:13:51.436Z,18
2023-09-06T05:18:51.452Z,20
2023-09-06T05:23:51.439Z,21
2023-09-06T05:28:51.462Z,21
2023-09-06T05:33:51.456Z,15
2023-09-06T05:38:51.457Z,26
2023-09-06T05:43:51.459Z,22
2023-09-06T05:48:51.446Z,23
2023-09-06T05:53:51.462Z,20
2023-09-06T05:58:51.449Z,21
2023-09-06T06:03:51.465Z,20
2023-09-06T06:08:51.466Z,24
2023-09-06T06:13:51.454Z,20
2023-09-06T06:18:51.470Z,19
2023-09-06T06:23:51.457Z,25
2023-09-06T06:28:51.473Z,15
2023-09-06T06:33:51.474Z,20
2023-09-06T06:38:51.476Z,27
2023-09-06T06:43:51.478Z,26
2023-09-06T06:48:51.466Z,29
2023-09-06T06:53:51.482Z,29
2023-09-06T06:58:51.469Z,23
2023-09-06T07:03:51.486Z,31
2023-09-06T07:08:51.487Z,23
2023-09-06T07:13:51.529Z,26
2023-09-06T07:18:51.492Z,34
2023-09-06T07:23:51.479Z,29
2023-09-06T07:33:51.483Z,32
2023-09-06T07:38:51.500Z,23
2023-09-06T07:43:51.502Z,24
2023-09-06T07:48:51.490Z,33
2023-09-06T07:53:51.508Z,36
2023-09-06T08:03:51.512Z,31
2023-09-06T08:08:51.516Z,29
2023-09-06T08:13:51.519Z,22
2023-09-06T08:18:51.522Z,27
2023-09-06T08:23:51.510Z,33
2023-09-06T08:28:51.527Z,26
2023-09-06T08:33:51.516Z,29
2023-09-06T08:38:51.533Z,38
2023-09-06T08:43:51.536Z,40
2023-09-06T08:48:51.525Z,36
2023-09-06T08:53:51.543Z,44
2023-09-06T08:58:51.531Z,38
2023-09-06T09:03:51.548Z,33
2023-09-06T09:08:51.537Z,24
2023-09-06T09:13:51.555Z,25
2023-09-06T09:18:51.558Z,40
2023-09-06T09:23:51.546Z,28
2023-09-06T09:28:51.566Z,45
2023-09-06T09:33:51.553Z,33
2023-09-06T09:38:51.570Z,28
2023-09-06T09:43:51.573Z,32
2023-09-06T09:48:51.576Z,32
2023-09-06T09:53:51.580Z,31
2023-09-06T09:58:51.568Z,35
2023-09-06T10:03:51.585Z,52
2023-09-06T10:08:51.574Z,34
2023-09-06T10:13:51.591Z,43
2023-09-06T10:18:51.594Z,47
2023-09-06T10:23:51.583Z,32
2023-09-06T10:28:51.601Z,34
2023-09-06T10:33:51.589Z,43
2023-09-06T10:38:51.607Z,41
2023-09-06T10:43:51.609Z,38
2023-09-06T10:48:51.613Z,38
2023-09-06T10:53:51.616Z,43
2023-09-06T10:58:51.605Z,36
2023-09-06T11:03:51.622Z,29
2023-09-06T11:08:51.611Z,49
2023-09-06T11:13:51.636Z,42
2023-09-06T11:18:51.631Z,30
2023-09-06T11:23:51.634Z,38
2023-09-06T11:28:51.638Z,39
2023-09-06T11:33:51.626Z,43
2023-09-06T11:38:51.644Z,28
2023-09-06T11:43:51.632Z,44
2023-09-06T11:48:51.650Z,38
2023-09-06T11:53:51.653Z,35
2023-09-06T11:58:51.642Z,39
2023-09-06T12:08:51.648Z,56
2023-09-06T12:13:51.665Z,31
2023-09-06T12:18:51.668Z,33
2023-09-06T12:23:51.671Z,34
2023-09-06T12:28:51.675Z,29
2023-09-06T12:33:51.663Z,35
2023-09-06T12:38:51.681Z,34
2023-09-06T12:43:51.669Z,34
2023-09-06T12:48:51.686Z,31
2023-09-06T12:53:51.689Z,31
2023-09-06T12:58:51.678Z,39
2023-09-06T13:03:51.696Z,36
2023-09-06T13:08:51.685Z,30
2023-09-06T13:13:51.702Z,36
2023-09-06T13:18:51.691Z,35
2023-09-06T13:23:51.708Z,30
2023-09-06T13:28:51.711Z,35
2023-09-06T13:33:51.700Z,29
2023-09-06T13:38:51.743Z,35
2023-09-06T13:43:51.706Z,34
2023-09-06T13:48:51.723Z,36
2023-09-06T13:53:51.727Z,44
2023-09-06T13:58:51.730Z,31
2023-09-06T14:03:51.733Z,35
2023-09-06T14:08:51.722Z,38
2023-09-06T14:13:51.739Z,34
2023-09-06T14:18:51.728Z,43
2023-09-06T14:23:51.745Z,34
2023-09-06T14:28:51.748Z,40
2023-09-06T14:33:51.737Z,38
2023-09-06T14:38:51.755Z,44
2023-09-06T14:43:51.744Z,36
2023-09-06T14:48:51.761Z,46
2023-09-06T14:53:51.764Z,39
2023-09-06T14:58:51.767Z,40
2023-09-06T15:03:51.771Z,52
2023-09-06T15:08:51.759Z,40
2023-09-06T15:13:51.776Z,45
2023-09-06T15:18:51.765Z,43
2023-09-06T15:23:51.830Z,39
2023-09-06T15:28:51.785Z,52
2023-09-06T15:33:51.774Z,45
2023-09-06T15:38:51.791Z,39
2023-09-06T15:43:51.779Z,49
2023-09-06T15:48:51.797Z,44
2023-09-06T15:53:51.785Z,44
2023-09-06T15:58:51.803Z,47
2023-09-06T16:03:51.805Z,42
2023-09-06T16:08:51.794Z,52
2023-09-06T16:13:51.812Z,47
2023-09-06T16:18:51.800Z,43
2023-09-06T16:23:51.817Z,49
2023-09-06T16:28:51.820Z,41
2023-09-06T16:33:51.823Z,45
2023-09-06T16:38:51.826Z,47
2023-09-06T16:43:51.814Z,46
2023-09-06T16:48:51.831Z,45
2023-09-06T16:53:51.820Z,41
2023-09-06T16:58:51.837Z,29
2023-09-06T17:03:51.840Z,35
2023-09-06T17:08:51.828Z,35
2023-09-06T17:13:51.846Z,47
2023-09-06T17:18:51.834Z,52
2023-09-06T17:23:51.851Z,46
2023-09-06T17:28:51.839Z,40
2023-09-06T17:33:51.856Z,36
2023-09-06T17:38:51.859Z,47
2023-09-06T17:43:51.847Z,46
2023-09-06T17:48:51.889Z,46
2023-09-06T17:53:51.852Z,34
2023-09-06T17:58:51.869Z,42
2023-09-06T18:03:51.871Z,42
2023-09-06T18:08:51.874Z,37
2023-09-06T18:13:51.877Z,45
2023-09-06T18:18:51.865Z,46
2023-09-06T18:23:51.881Z,50
2023-09-06T18:28:51.869Z,41
2023-09-06T18:33:51.886Z,42
2023-09-06T18:38:51.888Z,38
2023-09-06T18:43:51.876Z,33
2023-09-06T18:48:51.893Z,40
2023-09-06T18:53:51.881Z,29
2023-09-06T18:58:51.898Z,29
2023-09-06T19:03:51.900Z,35
2023-09-06T19:08:51.902Z,35
2023-09-06T19:13:51.905Z,39
2023-09-06T19:18:51.892Z,38
2023-09-06T19:23:51.909Z,29
2023-09-06T19:28:51.897Z,25
2023-09-06T19:33:51.913Z,32
2023-09-06T19:38:51.915Z,35
2023-09-06T19:43:51.942Z,29
2023-09-06T19:48:51.920Z,23
2023-09-06T19:53:51.907Z,29
2023-09-06T19:58:51.924Z,22
2023-09-06T20:03:51.912Z,26
2023-09-06T20:08:51.928Z,26
2023-09-06T20:13:51.930Z,19
2023-09-06T20:18:51.918Z,30
2023-09-06T20:23:51.935Z,26
2023-09-06T20:28:51.922Z,23
2023-09-06T20:33:51.938Z,21
2023-09-06T20:38:51.940Z,24
2023-09-06T20:43:51.943Z,21
2023-09-06T20:48:51.945Z,23
2023-09-06T20:53:51.932Z,20
2023-09-06T20:58:51.949Z,25
2023-09-06T21:03:51.936Z,20
2023-09-06T21:08:51.953Z,22
2023-09-06T21:13:51.954Z,29
2023-09-06T21:18:51.942Z,24
2023-09-06T21:23:51.959Z,23
2023-09-06T21:28:51.946Z,19
2023-09-06T21:33:51.963Z,21
2023-09-06T21:38:51.964Z,23
2023-09-06T21:43:51.966Z,21
2023-09-06T21:48:51.992Z,32
2023-09-06T21:53:51.956Z,20
2023-09-06T21:58:51.972Z,20
2023-09-06T22:03:51.960Z,22
2023-09-06T22:08:51.976Z,16
2023-09-06T22:13:51.977Z,19
2023-09-06T22:18:51.980Z,21
2023-09-06T22:23:51.982Z,19
2023-09-06T22:28:51.969Z,20
2023-09-06T22:33:51.985Z,18
2023-09-06T22:38:51.973Z,19
2023-09-06T22:43:51.989Z,19
2023-09-06T22:48:51.991Z,17
2023-09-06T22:53:51.978Z,22
2023-09-06T22:58:51.995Z,20
2023-09-06T23:03:51.982Z,19
2023-09-06T23:08:51.998Z,17
2023-09-06T23:13:52.000Z,18
2023-09-06T23:18:52.002Z,17
2023-09-06T23:23:52.068Z,18
2023-09-06T23:28:51.991Z,18
2023-09-06T23:33:52.007Z,18
2023-09-06T23:38:51.995Z,20
2023-09-06T23:43:52.011Z,17
2023-09-06T23:48:52.012Z,19
2023-09-06T23:53:52.023Z,18
2023-09-06T23:58:52.017Z,20
